Time;durP1;ratioP1;P1;durP2;ratioP2;P2;SDS_P1;SDS_P2;PMS_P1;PMS_P2;Temp;Humidity;BMP_temperature;BMP_pressure;BME280_temperature;BME280_humidity;BME280_pressure;Samples;Min_cycle;Max_cycle;Signal;HPM_P1;HPM_P2
2023/07/07 00:01:57;;;;;;;5.88;3.42;;;13.20;99.90;;;;;;6245410;23;20454;-61
2023/07/07 00:04:24;;;;;;;10.90;4.38;;;13.10;99.90;;;;;;6246114;23;20024;-61
2023/07/07 00:06:51;;;;;;;8.10;3.85;;;13.10;99.90;;;;;;6244254;23;20186;-59
2023/07/07 00:09:18;;;;;;;8.70;3.78;;;13.10;99.90;;;;;;6243343;23;20024;-60
2023/07/07 00:11:46;;;;;;;5.80;3.78;;;13.10;99.90;;;;;;6246016;23;20027;-61
2023/07/07 00:14:13;;;;;;;5.63;4.32;;;13.00;99.90;;;;;;6245189;23;20016;-60
2023/07/07 00:16:41;;;;;;;7.10;4.72;;;13.00;99.90;;;;;;6246084;23;20477;-60
2023/07/07 00:19:09;;;;;;;6.28;4.25;;;12.90;99.90;;;;;;6244074;23;20028;-61
2023/07/07 00:21:37;;;;;;;6.35;4.45;;;12.90;99.90;;;;;;6245261;22;20023;-59
2023/07/07 00:24:05;;;;;;;7.03;4.65;;;12.90;99.90;;;;;;6243844;23;20027;-60
2023/07/07 00:26:33;;;;;;;7.78;5.15;;;12.80;99.90;;;;;;6245987;22;20074;-60
2023/07/07 00:29:00;;;;;;;8.68;4.57;;;12.80;99.90;;;;;;6243228;23;20106;-60
2023/07/07 00:31:28;;;;;;;9.07;4.45;;;12.80;99.90;;;;;;6245863;23;20389;-60
2023/07/07 00:33:56;;;;;;;8.05;4.45;;;12.90;99.90;;;;;;6245846;23;20023;-60
2023/07/07 00:36:23;;;;;;;7.82;4.75;;;12.80;99.90;;;;;;6245117;23;20028;-60
2023/07/07 00:38:51;;;;;;;8.02;5.40;;;12.70;99.90;;;;;;6243835;23;20462;-60
2023/07/07 00:41:18;;;;;;;8.60;4.65;;;12.70;99.90;;;;;;6245497;23;20028;-60
2023/07/07 00:44:01;;;;;;;6.07;5.10;;;12.70;99.90;;;;;;6243039;23;20020;-60
2023/07/07 00:46:28;;;;;;;6.75;4.75;;;12.70;99.90;;;;;;6245876;23;20024;-60
2023/07/07 00:48:57;;;;;;;7.28;4.85;;;12.70;99.90;;;;;;6245556;23;20039;-59
2023/07/07 00:51:28;;;;;;;8.25;4.63;;;12.70;99.90;;;;;;6244868;23;20024;-60
2023/07/07 00:53:56;;;;;;;5.90;4.47;;;12.70;99.90;;;;;;6245289;23;20035;-60
2023/07/07 00:56:27;;;;;;;8.52;4.53;;;12.70;99.90;;;;;;6245073;23;20389;-60
2023/07/07 00:58:59;;;;;;;6.60;4.55;;;12.70;99.90;;;;;;6243673;23;20090;-60
2023/07/07 01:01:26;;;;;;;6.28;4.47;;;12.60;99.90;;;;;;6243692;23;20078;-60
2023/07/07 01:03:58;;;;;;;6.65;4.25;;;12.60;99.90;;;;;;6244799;23;20020;-59
2023/07/07 01:06:29;;;;;;;6.32;4.50;;;12.60;99.90;;;;;;6243788;23;20358;-60
2023/07/07 01:09:00;;;;;;;6.00;3.97;;;12.60;99.90;;;;;;6243723;23;20455;-60
2023/07/07 01:11:28;;;;;;;6.72;4.25;;;12.50;99.90;;;;;;6244793;23;20031;-61
2023/07/07 01:13:56;;;;;;;6.93;3.95;;;12.50;99.90;;;;;;6245457;23;20020;-60
2023/07/07 01:16:33;;;;;;;7.28;4.28;;;12.50;99.90;;;;;;6243739;23;20024;-60
2023/07/07 01:19:16;;;;;;;6.85;3.70;;;12.50;99.90;;;;;;6244101;23;20020;-60
2023/07/07 01:21:54;;;;;;;4.10;3.10;;;12.50;99.90;;;;;;6245580;23;20024;-60
2023/07/07 01:24:41;;;;;;;4.93;3.60;;;12.50;99.90;;;;;;6243455;23;20024;-61
2023/07/07 01:27:42;;;;;;;6.57;3.65;;;12.50;99.90;;;;;;6245214;23;20454;-60
2023/07/07 01:30:40;;;;;;;4.68;3.13;;;12.50;99.90;;;;;;6245470;23;20075;-60
2023/07/07 01:33:10;;;;;;;6.18;3.92;;;12.50;99.90;;;;;;6225396;23;20024;-60
2023/07/07 01:35:37;;;;;;;5.25;3.47;;;12.40;99.90;;;;;;6245054;23;20024;-60
2023/07/07 01:38:05;;;;;;;5.50;3.47;;;12.40;99.90;;;;;;6245121;23;20028;-60
2023/07/07 01:40:40;;;;;;;6.63;3.88;;;12.40;99.90;;;;;;6244400;23;20539;-59
2023/07/07 01:43:13;;;;;;;4.95;3.35;;;12.40;99.90;;;;;;6243320;23;20020;-60
2023/07/07 01:45:48;;;;;;;8.82;3.60;;;12.40;99.90;;;;;;6244693;23;20078;-60
2023/07/07 01:48:23;;;;;;;5.10;3.67;;;12.40;99.90;;;;;;6245164;23;20020;-60
2023/07/07 01:50:52;;;;;;;6.35;3.65;;;12.40;99.90;;;;;;6245481;23;20024;-60
2023/07/07 01:53:23;;;;;;;7.82;3.83;;;12.40;99.90;;;;;;6242715;23;20020;-59
2023/07/07 01:55:54;;;;;;;5.85;3.50;;;12.40;99.90;;;;;;6243535;23;20074;-60
2023/07/07 01:58:22;;;;;;;4.75;3.28;;;12.30;99.90;;;;;;6245363;22;20024;-60
2023/07/07 02:00:52;;;;;;;6.32;3.55;;;12.30;99.90;;;;;;6244082;22;20020;-61
2023/07/07 02:03:20;;;;;;;6.97;3.28;;;12.30;99.90;;;;;;6243298;23;20024;-60
2023/07/07 02:05:47;;;;;;;5.80;3.45;;;12.30;99.90;;;;;;6244405;23;20100;-60
2023/07/07 02:08:14;;;;;;;6.13;3.08;;;12.30;99.90;;;;;;6244823;23;20077;-60
2023/07/07 02:10:42;;;;;;;5.93;3.63;;;12.30;99.90;;;;;;6247571;23;20086;-60
2023/07/07 02:13:09;;;;;;;9.20;3.38;;;12.30;99.90;;;;;;6247169;23;20039;-60
2023/07/07 02:15:36;;;;;;;4.78;3.55;;;12.40;99.90;;;;;;6246393;23;20024;-60
2023/07/07 02:18:04;;;;;;;7.72;3.47;;;12.40;99.90;;;;;;6247218;23;20028;-60
2023/07/07 02:20:31;;;;;;;6.88;3.58;;;12.40;99.90;;;;;;6247178;23;20027;-60
2023/07/07 02:22:58;;;;;;;6.85;3.88;;;12.40;99.90;;;;;;6246329;23;20446;-60
2023/07/07 02:25:25;;;;;;;8.93;4.13;;;12.40;99.90;;;;;;6245048;23;20028;-60
2023/07/07 02:27:52;;;;;;;7.63;4.18;;;12.50;99.90;;;;;;6244542;23;20031;-60
2023/07/07 02:30:20;;;;;;;10.63;3.92;;;12.50;99.90;;;;;;6245089;23;20408;-61
2023/07/07 02:32:47;;;;;;;7.05;3.90;;;12.50;99.90;;;;;;6246769;23;20020;-61
2023/07/07 02:35:15;;;;;;;5.72;4.18;;;12.50;99.90;;;;;;6244294;23;20026;-60
2023/07/07 02:37:42;;;;;;;8.48;4.45;;;12.50;99.90;;;;;;6245507;23;20082;-60
2023/07/07 02:40:10;;;;;;;6.80;4.85;;;12.50;99.90;;;;;;6245093;23;20331;-61
2023/07/07 02:42:37;;;;;;;8.10;5.00;;;12.50;99.90;;;;;;6245656;22;20024;-61
2023/07/07 02:45:04;;;;;;;9.80;5.50;;;12.50;99.90;;;;;;6246775;23;20023;-61
2023/07/07 02:47:31;;;;;;;8.82;5.20;;;12.50;99.90;;;;;;6246559;23;20131;-61
2023/07/07 02:49:58;;;;;;;11.52;6.18;;;12.60;99.90;;;;;;6246071;23;20031;-60
2023/07/07 02:52:28;;;;;;;8.73;6.03;;;12.60;99.90;;;;;;6244871;23;20454;-61
2023/07/07 02:54:55;;;;;;;9.97;5.57;;;12.50;99.90;;;;;;6244797;23;20028;-60
2023/07/07 02:57:22;;;;;;;9.93;6.18;;;12.50;99.90;;;;;;6246072;23;20450;-60
2023/07/07 02:59:49;;;;;;;13.93;7.43;;;12.50;99.90;;;;;;6244665;23;20050;-60
2023/07/07 03:02:16;;;;;;;9.00;5.90;;;12.40;99.90;;;;;;6246608;23;20028;-60
2023/07/07 03:04:42;;;;;;;8.98;6.53;;;12.40;99.90;;;;;;6245269;23;20477;-59
2023/07/07 03:07:09;;;;;;;12.80;7.60;;;12.40;99.90;;;;;;6246523;23;20028;-61
2023/07/07 03:09:38;;;;;;;10.95;6.35;;;12.40;99.90;;;;;;6244472;23;20074;-60
2023/07/07 03:12:06;;;;;;;12.00;6.40;;;12.30;99.90;;;;;;6245541;22;20024;-60
2023/07/07 03:14:34;;;;;;;10.80;6.43;;;12.30;99.90;;;;;;6245923;23;20115;-60
2023/07/07 03:17:05;;;;;;;11.45;6.38;;;12.30;99.90;;;;;;6243190;23;20358;-60
2023/07/07 03:19:32;;;;;;;9.73;6.30;;;12.20;99.90;;;;;;6244808;23;20024;-61
2023/07/07 03:21:59;;;;;;;10.55;7.07;;;12.20;99.90;;;;;;6244594;23;20031;-59
2023/07/07 03:24:26;;;;;;;11.00;7.20;;;12.10;99.90;;;;;;6243794;23;20070;-60
2023/07/07 03:26:54;;;;;;;10.45;7.32;;;12.10;99.90;;;;;;6246561;23;20069;-61
2023/07/07 03:29:21;;;;;;;12.52;8.07;;;12.10;99.90;;;;;;6246467;23;20031;-60
2023/07/07 03:31:48;;;;;;;12.38;8.02;;;12.10;99.90;;;;;;6245748;23;20028;-61
2023/07/07 03:34:15;;;;;;;13.23;8.65;;;12.00;99.90;;;;;;6244454;23;20024;-60
2023/07/07 03:36:42;;;;;;;12.98;8.00;;;12.00;99.90;;;;;;6242472;23;20047;-60
2023/07/07 03:39:09;;;;;;;11.02;6.75;;;12.10;99.90;;;;;;6242400;23;20090;-61
2023/07/07 03:41:36;;;;;;;14.45;7.78;;;12.20;99.90;;;;;;6242195;23;20389;-61
2023/07/07 03:44:05;;;;;;;15.18;8.88;;;12.40;99.90;;;;;;6244790;23;20028;-60
2023/07/07 03:46:32;;;;;;;14.00;8.00;;;12.40;99.90;;;;;;6242318;23;20051;-60
2023/07/07 03:48:59;;;;;;;9.65;6.43;;;12.40;99.90;;;;;;6243177;23;20036;-59
2023/07/07 03:51:28;;;;;;;11.40;8.32;;;12.60;99.90;;;;;;6244834;23;20024;-61
2023/07/07 03:53:56;;;;;;;13.60;8.90;;;12.80;99.90;;;;;;6244743;23;20024;-61
2023/07/07 03:56:23;;;;;;;12.77;8.75;;;12.80;99.90;;;;;;6244977;23;20024;-60
2023/07/07 03:58:49;;;;;;;14.27;9.00;;;12.80;99.90;;;;;;6242577;23;20032;-60
2023/07/07 04:01:18;;;;;;;15.75;8.00;;;12.80;99.90;;;;;;6244175;23;20511;-61
2023/07/07 04:03:47;;;;;;;13.20;8.55;;;12.70;99.90;;;;;;6244969;23;20545;-60
2023/07/07 04:06:14;;;;;;;11.52;8.00;;;12.80;99.90;;;;;;6242100;23;20028;-60
2023/07/07 04:08:41;;;;;;;12.02;8.63;;;12.90;99.90;;;;;;6243009;23;20023;-61
2023/07/07 04:11:11;;;;;;;15.48;9.93;;;13.00;99.90;;;;;;6244829;23;20024;-61
2023/07/07 04:13:40;;;;;;;13.57;8.77;;;12.90;99.90;;;;;;6244230;23;20016;-60
2023/07/07 04:16:09;;;;;;;11.27;8.18;;;12.90;99.90;;;;;;6244550;23;20031;-60
2023/07/07 04:18:40;;;;;;;14.55;9.35;;;13.10;99.90;;;;;;6242915;23;20024;-61
2023/07/07 04:21:09;;;;;;;15.18;9.52;;;13.00;99.90;;;;;;6242417;23;20024;-60
2023/07/07 04:23:37;;;;;;;11.82;9.88;;;13.10;99.90;;;;;;6244191;23;20126;-59
2023/07/07 04:26:04;;;;;;;17.42;9.43;;;13.10;99.90;;;;;;6245130;23;20176;-60
2023/07/07 04:28:32;;;;;;;14.43;8.98;;;13.30;99.90;;;;;;6241882;23;20024;-60
2023/07/07 04:31:00;;;;;;;13.43;9.65;;;13.30;99.90;;;;;;6243111;23;20028;-60
2023/07/07 04:33:28;;;;;;;14.32;9.88;;;13.40;99.90;;;;;;6242303;23;20035;-63
2023/07/07 04:35:58;;;;;;;16.52;9.65;;;13.60;99.90;;;;;;6242442;23;20078;-63
2023/07/07 04:38:30;;;;;;;15.15;9.38;;;13.70;99.90;;;;;;6244311;23;20020;-64
2023/07/07 04:41:05;;;;;;;17.88;10.25;;;13.60;99.90;;;;;;6242652;23;20354;-61
2023/07/07 04:43:32;;;;;;;18.48;10.35;;;13.60;99.90;;;;;;6243641;23;20077;-60
2023/07/07 04:45:59;;;;;;;16.77;11.27;;;13.70;99.90;;;;;;6244075;23;20078;-60
2023/07/07 04:48:26;;;;;;;16.83;11.50;;;13.60;99.90;;;;;;6244080;23;20469;-61
2023/07/07 04:50:59;;;;;;;11.93;9.38;;;13.60;99.90;;;;;;6242876;23;20024;-60
2023/07/07 04:53:27;;;;;;;16.05;11.43;;;13.70;99.90;;;;;;6242451;23;20020;-60
2023/07/07 04:55:54;;;;;;;17.70;10.93;;;13.80;99.90;;;;;;6242119;23;20020;-60
2023/07/07 04:58:21;;;;;;;18.55;11.15;;;13.80;99.90;;;;;;6244725;22;20450;-60
2023/07/07 05:00:48;;;;;;;17.52;12.30;;;13.80;99.90;;;;;;6244189;23;20099;-60
2023/07/07 05:03:15;;;;;;;21.27;11.18;;;13.80;99.90;;;;;;6243493;23;20051;-61
2023/07/07 05:05:42;;;;;;;15.02;11.85;;;13.80;99.90;;;;;;6242142;23;20020;-61
2023/07/07 05:08:10;;;;;;;17.63;11.23;;;13.90;99.90;;;;;;6244370;23;20023;-61
2023/07/07 05:10:37;;;;;;;17.13;11.68;;;14.00;99.90;;;;;;6242757;23;20024;-60
2023/07/07 05:13:04;;;;;;;17.02;10.55;;;14.10;99.90;;;;;;6244409;23;20400;-60
2023/07/07 05:15:31;;;;;;;14.27;9.85;;;14.20;99.90;;;;;;6244370;23;20021;-60
2023/07/07 05:17:58;;;;;;;18.58;10.80;;;14.40;99.90;;;;;;6243388;23;20020;-59
2023/07/07 05:20:25;;;;;;;21.63;13.25;;;14.60;99.90;;;;;;6244244;23;20032;-61
2023/07/07 05:22:52;;;;;;;21.58;13.75;;;14.60;99.90;;;;;;6243805;23;20028;-60
2023/07/07 05:25:20;;;;;;;17.70;11.68;;;14.80;99.90;;;;;;6243269;23;20020;-61
2023/07/07 05:27:47;;;;;;;17.38;11.57;;;15.00;99.90;;;;;;6244058;22;20024;-60
2023/07/07 05:30:14;;;;;;;17.05;11.95;;;15.10;99.90;;;;;;6244486;23;20323;-61
2023/07/07 05:32:41;;;;;;;16.27;11.02;;;15.20;99.90;;;;;;6243011;23;20024;-61
2023/07/07 05:35:08;;;;;;;13.07;10.60;;;15.30;99.90;;;;;;6242516;23;20454;-63
2023/07/07 05:37:35;;;;;;;17.63;11.73;;;15.50;99.90;;;;;;6243919;23;20024;-60
2023/07/07 05:40:02;;;;;;;16.10;11.18;;;15.60;99.90;;;;;;6243908;23;20031;-61
2023/07/07 05:42:31;;;;;;;20.48;11.07;;;15.70;99.90;;;;;;6245661;23;20099;-61
2023/07/07 05:44:58;;;;;;;17.83;10.77;;;15.90;99.90;;;;;;6245778;23;20338;-60
2023/07/07 05:47:25;;;;;;;17.10;11.50;;;16.10;99.90;;;;;;6246074;23;20035;-61
2023/07/07 05:49:54;;;;;;;15.85;11.13;;;16.30;99.90;;;;;;6246103;23;20481;-60
2023/07/07 05:52:21;;;;;;;14.52;10.95;;;16.60;99.90;;;;;;6245430;23;20024;-60
2023/07/07 05:54:50;;;;;;;16.08;11.23;;;16.80;99.90;;;;;;6244575;23;20070;-61
2023/07/07 05:57:17;;;;;;;15.65;11.52;;;16.90;99.90;;;;;;6244222;23;20050;-61
2023/07/07 05:59:46;;;;;;;14.38;10.35;;;17.10;99.90;;;;;;6245130;23;20470;-61
2023/07/07 06:02:12;;;;;;;17.52;10.50;;;17.20;99.90;;;;;;6245450;23;20089;-61
2023/07/07 06:04:39;;;;;;;16.30;10.02;;;17.30;99.90;;;;;;6246062;23;20385;-61
2023/07/07 06:07:07;;;;;;;16.02;10.80;;;17.50;99.90;;;;;;6243252;23;20020;-61
2023/07/07 06:09:34;;;;;;;13.05;10.07;;;17.70;99.90;;;;;;6245947;23;20082;-60
2023/07/07 06:12:01;;;;;;;15.65;10.38;;;17.90;99.90;;;;;;6244526;23;20031;-59
2023/07/07 06:14:28;;;;;;;14.43;9.18;;;18.00;99.90;;;;;;6243755;23;20066;-61
2023/07/07 06:16:56;;;;;;;14.77;10.07;;;18.20;99.90;;;;;;6245722;23;20028;-61
2023/07/07 06:19:23;;;;;;;13.85;9.50;;;18.30;99.90;;;;;;6244496;23;20024;-61
2023/07/07 06:21:50;;;;;;;15.45;10.15;;;18.30;99.90;;;;;;6245547;23;20135;-61
2023/07/07 06:24:17;;;;;;;14.38;9.40;;;18.60;99.90;;;;;;6246133;23;20024;-61
2023/07/07 06:26:44;;;;;;;13.45;9.27;;;18.80;99.90;;;;;;6245971;23;20154;-61
2023/07/07 06:29:11;;;;;;;14.20;9.63;;;18.90;99.90;;;;;;6245444;23;20028;-61
2023/07/07 06:31:38;;;;;;;13.30;9.38;;;19.00;99.90;;;;;;6244166;23;20028;-61
2023/07/07 06:34:06;;;;;;;16.33;9.38;;;19.20;99.90;;;;;;6243763;23;20032;-61
2023/07/07 06:36:33;;;;;;;14.95;9.48;;;19.40;99.90;;;;;;6244226;23;20028;-61
2023/07/07 06:39:00;;;;;;;10.90;8.38;;;19.50;99.90;;;;;;6244130;23;20024;-60
2023/07/07 06:41:27;;;;;;;12.90;8.45;;;19.70;99.90;;;;;;6245382;23;20354;-61
2023/07/07 06:43:56;;;;;;;10.35;8.32;;;19.90;99.90;;;;;;6245534;23;20030;-61
2023/07/07 06:46:25;;;;;;;10.13;8.07;;;20.10;99.90;;;;;;6246020;23;20046;-62
2023/07/07 06:48:52;;;;;;;13.82;8.48;;;20.30;99.90;;;;;;6245407;22;20442;-61
2023/07/07 06:51:21;;;;;;;13.45;8.57;;;20.50;99.90;;;;;;6244260;23;20032;-61
2023/07/07 06:53:48;;;;;;;10.30;7.00;;;20.70;99.90;;;;;;6245622;23;20111;-62
2023/07/07 06:56:15;;;;;;;15.48;7.70;;;20.90;99.90;;;;;;6244990;23;20031;-61
2023/07/07 06:58:41;;;;;;;12.32;7.78;;;21.00;99.90;;;;;;6243770;23;20027;-61
2023/07/07 07:01:11;;;;;;;15.93;7.70;;;21.30;99.90;;;;;;6244668;23;20031;-62
2023/07/07 07:03:38;;;;;;;15.80;7.13;;;21.60;99.90;;;;;;6243286;23;20103;-59
2023/07/07 07:06:05;;;;;;;14.73;6.07;;;21.90;99.90;;;;;;6243814;23;20024;-61
2023/07/07 07:08:34;;;;;;;10.20;6.25;;;22.20;99.90;;;;;;6243906;23;20454;-60
2023/07/07 07:11:01;;;;;;;7.38;5.45;;;22.50;99.90;;;;;;6242974;23;20028;-60
2023/07/07 07:13:28;;;;;;;9.05;5.68;;;22.80;99.90;;;;;;6243905;23;20307;-60
2023/07/07 07:15:55;;;;;;;13.10;6.45;;;22.90;99.90;;;;;;6243969;23;20023;-60
2023/07/07 07:18:22;;;;;;;10.13;5.32;;;22.90;99.90;;;;;;6244825;23;20073;-60
2023/07/07 07:20:49;;;;;;;9.13;6.00;;;23.30;99.90;;;;;;6245845;23;20032;-61
2023/07/07 07:23:16;;;;;;;12.25;5.55;;;23.50;99.90;;;;;;6244721;23;20143;-60
2023/07/07 07:25:45;;;;;;;8.15;5.25;;;23.90;99.90;;;;;;6243384;23;20074;-61
2023/07/07 07:28:12;;;;;;;8.20;5.63;;;24.00;99.90;;;;;;6245836;23;20393;-61
2023/07/07 07:30:39;;;;;;;12.90;5.90;;;24.10;99.90;;;;;;6243096;23;20027;-61
2023/07/07 07:33:11;;;;;;;11.70;4.97;;;24.50;99.90;;;;;;6246030;23;20354;-61
2023/07/07 07:35:38;;;;;;;7.30;4.30;;;24.80;99.90;;;;;;6242366;23;20019;-62
2023/07/07 07:38:05;;;;;;;9.57;5.30;;;25.10;99.90;;;;;;6245140;23;20020;-62
2023/07/07 07:40:32;;;;;;;9.57;4.53;;;25.40;99.20;;;;;;6241367;23;20024;-60
2023/07/07 07:43:00;;;;;;;8.63;4.88;;;25.60;98.60;;;;;;6245809;23;20032;-60
2023/07/07 07:45:27;;;;;;;9.43;4.72;;;25.80;97.30;;;;;;6242396;23;20024;-61
2023/07/07 07:47:54;;;;;;;10.00;4.53;;;26.00;97.30;;;;;;6246422;23;20346;-61
2023/07/07 07:50:23;;;;;;;6.30;3.95;;;26.10;97.00;;;;;;6244240;23;20028;-61
2023/07/07 07:52:49;;;;;;;7.15;3.67;;;26.40;96.40;;;;;;6245534;23;20396;-62
2023/07/07 07:55:16;;;;;;;7.22;4.05;;;26.50;96.10;;;;;;6245544;23;20023;-62
2023/07/07 07:57:44;;;;;;;5.90;3.78;;;26.40;95.10;;;;;;6245885;23;20039;-62
2023/07/07 08:00:13;;;;;;;4.97;3.17;;;26.70;94.90;;;;;;6245163;23;20466;-61
2023/07/07 08:02:41;;;;;;;7.95;3.22;;;27.00;94.00;;;;;;6228406;23;20123;-61
2023/07/07 08:05:09;;;;;;;4.65;3.08;;;27.30;93.90;;;;;;6239832;23;20015;-62
2023/07/07 08:07:35;;;;;;;6.38;4.00;;;27.40;93.20;;;;;;6243256;23;20087;-62
2023/07/07 08:10:03;;;;;;;6.25;2.90;;;27.50;92.60;;;;;;6245777;23;20020;-62
2023/07/07 08:12:30;;;;;;;5.53;2.78;;;27.60;92.10;;;;;;6245128;23;20070;-61
2023/07/07 08:14:57;;;;;;;7.47;3.33;;;27.70;91.90;;;;;;6245780;23;20027;-61
2023/07/07 08:17:25;;;;;;;7.57;3.05;;;27.90;91.40;;;;;;6243793;23;20401;-61
2023/07/07 08:19:54;;;;;;;6.85;3.42;;;27.90;90.80;;;;;;6245243;23;20020;-62
2023/07/07 08:22:23;;;;;;;5.05;2.90;;;28.10;90.60;;;;;;6243828;23;20054;-61
2023/07/07 08:24:52;;;;;;;6.07;2.60;;;28.20;90.40;;;;;;6243768;23;20024;-61
2023/07/07 08:27:20;;;;;;;6.32;2.63;;;28.30;90.00;;;;;;6243232;23;20251;-62
2023/07/07 08:29:47;;;;;;;7.03;3.10;;;28.60;89.50;;;;;;6245272;23;20463;-61
2023/07/07 08:32:17;;;;;;;8.05;2.70;;;28.80;88.20;;;;;;6245273;23;20024;-62
2023/07/07 08:34:46;;;;;;;8.45;2.42;;;28.70;87.00;;;;;;6244742;23;20070;-62
2023/07/07 08:37:13;;;;;;;6.38;2.53;;;29.00;86.90;;;;;;6245401;23;20020;-62
2023/07/07 08:39:40;;;;;;;6.68;2.70;;;29.20;87.40;;;;;;6243661;23;20082;-62
2023/07/07 08:42:18;;;;;;;4.53;2.67;;;29.30;85.90;;;;;;6242980;23;20028;-61
2023/07/07 08:44:45;;;;;;;4.72;2.78;;;29.40;85.00;;;;;;6245219;23;20030;-62
2023/07/07 08:47:17;;;;;;;4.72;2.15;;;29.30;84.40;;;;;;6245573;23;20319;-63
2023/07/07 08:49:54;;;;;;;5.25;2.15;;;29.30;82.50;;;;;;6242920;23;20057;-61
2023/07/07 08:52:34;;;;;;;5.05;2.40;;;29.70;82.60;;;;;;6245257;23;20453;-62
2023/07/07 08:55:12;;;;;;;6.47;2.50;;;29.90;79.60;;;;;;6240182;23;20028;-62
2023/07/07 08:57:51;;;;;;;6.30;2.35;;;30.00;79.80;;;;;;6242901;23;20032;-61
2023/07/07 09:00:23;;;;;;;5.43;2.30;;;30.10;78.70;;;;;;6242354;23;20397;-61
2023/07/07 09:03:08;;;;;;;3.95;2.05;;;29.80;78.10;;;;;;6243209;23;20077;-62
2023/07/07 09:05:50;;;;;;;5.40;2.58;;;29.80;79.30;;;;;;6244065;23;20027;-62
2023/07/07 09:08:24;;;;;;;4.70;2.13;;;30.00;77.30;;;;;;6242327;23;20028;-62
2023/07/07 09:11:04;;;;;;;4.07;2.17;;;30.20;78.60;;;;;;6241878;23;20024;-62
2023/07/07 09:13:35;;;;;;;3.28;1.90;;;30.40;76.80;;;;;;6243940;23;20035;-61
2023/07/07 09:16:12;;;;;;;4.95;2.00;;;30.50;73.90;;;;;;6241502;23;20024;-62
2023/07/07 09:18:44;;;;;;;2.80;1.60;;;30.40;72.80;;;;;;6243771;23;20024;-62
2023/07/07 09:21:24;;;;;;;5.20;2.00;;;30.50;73.20;;;;;;6244156;23;20031;-62
2023/07/07 09:23:55;;;;;;;6.07;2.05;;;30.40;73.20;;;;;;6241947;23;20086;-62
2023/07/07 09:26:28;;;;;;;2.50;1.67;;;30.60;73.00;;;;;;6242141;23;20017;-62
2023/07/07 09:28:56;;;;;;;4.45;2.20;;;30.50;72.40;;;;;;6244364;23;20032;-61
2023/07/07 09:31:30;;;;;;;4.57;1.88;;;30.70;72.70;;;;;;6241193;23;20080;-61
2023/07/07 09:33:59;;;;;;;4.20;1.90;;;30.90;72.80;;;;;;6242309;23;20466;-62
2023/07/07 09:36:32;;;;;;;2.67;1.67;;;31.10;73.20;;;;;;6244124;22;20024;-62
2023/07/07 09:39:14;;;;;;;4.88;2.08;;;31.10;73.00;;;;;;6243278;23;20024;-62
2023/07/07 09:41:54;;;;;;;5.78;2.20;;;31.20;71.70;;;;;;6241989;23;20020;-62
2023/07/07 09:44:49;;;;;;;3.33;2.00;;;31.30;71.30;;;;;;6243198;23;20027;-62
2023/07/07 09:47:22;;;;;;;6.15;2.28;;;31.30;70.20;;;;;;6242108;23;20024;-62
2023/07/07 09:49:55;;;;;;;4.47;2.03;;;31.10;70.30;;;;;;6241711;23;20024;-62
2023/07/07 09:52:36;;;;;;;3.17;1.90;;;31.30;70.70;;;;;;6241543;23;20025;-63
2023/07/07 09:55:12;;;;;;;4.05;1.73;;;31.30;69.30;;;;;;6242056;23;20020;-62
2023/07/07 09:57:43;;;;;;;6.10;2.13;;;31.30;70.60;;;;;;6243382;23;20020;-62
2023/07/07 10:00:16;;;;;;;3.22;1.85;;;31.10;70.20;;;;;;6243107;22;20024;-63
2023/07/07 10:02:45;;;;;;;4.93;1.80;;;31.30;70.10;;;;;;6240897;23;20024;-61
2023/07/07 10:05:13;;;;;;;4.95;2.25;;;31.20;70.20;;;;;;6242433;23;20108;-62
2023/07/07 10:07:42;;;;;;;3.50;1.97;;;31.20;69.90;;;;;;6244607;23;20024;-63
2023/07/07 10:10:14;;;;;;;3.28;2.13;;;31.20;69.60;;;;;;6244208;23;20020;-62
2023/07/07 10:12:41;;;;;;;3.50;1.90;;;31.40;69.10;;;;;;6243836;23;20327;-62
2023/07/07 10:15:30;;;;;;;6.03;2.03;;;31.40;69.50;;;;;;6242717;23;20031;-62
2023/07/07 10:18:05;;;;;;;4.13;2.40;;;31.70;69.20;;;;;;6243802;23;20441;-61
2023/07/07 10:20:32;;;;;;;4.47;2.03;;;31.70;68.40;;;;;;6242304;23;20031;-61
2023/07/07 10:23:00;;;;;;;3.20;1.88;;;31.60;68.00;;;;;;6244821;23;20082;-61
2023/07/07 10:25:30;;;;;;;4.83;1.87;;;31.60;68.60;;;;;;6244389;23;20028;-62
2023/07/07 10:27:57;;;;;;;4.40;2.38;;;32.00;68.70;;;;;;6246190;23;20031;-62
2023/07/07 10:30:24;;;;;;;3.88;1.95;;;32.00;68.20;;;;;;6247040;23;20028;-62
2023/07/07 10:32:51;;;;;;;4.80;1.80;;;32.30;67.80;;;;;;6244957;23;20024;-61
2023/07/07 10:35:20;;;;;;;3.30;1.40;;;32.30;68.00;;;;;;6244146;23;20028;-61
2023/07/07 10:37:47;;;;;;;3.60;1.50;;;32.30;67.30;;;;;;6246057;23;20032;-63
2023/07/07 10:40:21;;;;;;;5.45;1.67;;;32.30;67.60;;;;;;6244246;23;20021;-61
2023/07/07 10:42:53;;;;;;;5.35;1.92;;;32.50;67.00;;;;;;6247083;23;20074;-62
2023/07/07 10:45:21;;;;;;;4.70;1.70;;;32.60;65.90;;;;;;6244834;23;20028;-62
2023/07/07 10:47:48;;;;;;;4.50;2.03;;;32.60;66.90;;;;;;6243894;23;20073;-63
2023/07/07 10:50:18;;;;;;;3.30;1.77;;;32.80;67.50;;;;;;6246745;23;20024;-63
2023/07/07 10:52:59;;;;;;;5.03;2.03;;;32.80;67.20;;;;;;6226171;23;20094;-63
2023/07/07 10:55:34;;;;;;;4.93;1.90;;;33.00;66.70;;;;;;6246005;23;20024;-62
2023/07/07 10:58:14;;;;;;;4.85;2.03;;;32.90;66.20;;;;;;6244875;23;20051;-62
2023/07/07 11:00:52;;;;;;;5.03;1.65;;;32.90;66.30;;;;;;6246803;23;20031;-62
2023/07/07 11:03:54;;;;;;;4.05;1.73;;;32.90;66.60;;;;;;6246055;23;20028;-62
2023/07/07 11:06:32;;;;;;;6.93;1.85;;;33.20;66.50;;;;;;6234810;23;20468;-62
2023/07/07 11:09:08;;;;;;;3.20;1.92;;;33.20;66.90;;;;;;6244131;23;20047;-62
2023/07/07 11:11:42;;;;;;;4.30;2.15;;;33.50;66.50;;;;;;6246359;23;20023;-62
2023/07/07 11:14:32;;;;;;;4.53;2.15;;;33.80;66.20;;;;;;6244753;23;20524;-62
2023/07/07 11:17:11;;;;;;;4.78;1.88;;;33.90;65.20;;;;;;6245377;22;20458;-62
2023/07/07 11:20:00;;;;;;;4.00;1.85;;;33.80;64.00;;;;;;6245935;23;20331;-61
2023/07/07 11:22:47;;;;;;;4.72;1.83;;;33.80;64.40;;;;;;6243470;23;20028;-62
2023/07/07 11:25:21;;;;;;;4.13;1.80;;;33.70;64.10;;;;;;6245955;23;20520;-60
2023/07/07 11:28:03;;;;;;;3.20;1.77;;;33.50;62.90;;;;;;6245918;23;20027;-61
2023/07/07 11:30:38;;;;;;;5.93;2.03;;;33.50;63.70;;;;;;6241410;22;20024;-62
2023/07/07 11:33:20;;;;;;;4.10;1.88;;;33.60;63.30;;;;;;6243269;23;20450;-61
2023/07/07 11:35:57;;;;;;;6.25;2.88;;;33.70;64.60;;;;;;6243142;23;20035;-62
2023/07/07 11:38:49;;;;;;;4.75;1.77;;;33.80;64.20;;;;;;6244291;23;20020;-62
2023/07/07 11:41:25;;;;;;;4.50;2.28;;;33.80;63.10;;;;;;6245181;23;20020;-62
2023/07/07 11:44:21;;;;;;;3.90;1.98;;;33.70;63.50;;;;;;6242685;23;20028;-63
2023/07/07 11:47:09;;;;;;;3.13;1.83;;;34.00;63.60;;;;;;6245487;23;20100;-62
2023/07/07 11:49:55;;;;;;;4.22;2.20;;;33.70;63.70;;;;;;6243180;23;20020;-62
2023/07/07 11:52:36;;;;;;;2.92;1.70;;;33.30;64.00;;;;;;6244680;23;20078;-62
2023/07/07 11:55:21;;;;;;;5.47;2.20;;;32.90;65.10;;;;;;6245476;23;20073;-61
2023/07/07 11:57:58;;;;;;;4.43;2.22;;;33.40;65.10;;;;;;6242360;23;20020;-61
2023/07/07 12:00:47;;;;;;;5.25;2.03;;;33.50;63.50;;;;;;6245369;23;20028;-62
2023/07/07 12:03:45;;;;;;;4.30;1.83;;;33.50;64.70;;;;;;6245137;23;20039;-62
2023/07/07 12:06:22;;;;;;;5.63;2.10;;;33.80;63.40;;;;;;6242203;23;20520;-61
2023/07/07 12:09:06;;;;;;;4.32;2.35;;;33.90;64.00;;;;;;6245223;23;20343;-61
2023/07/07 12:11:37;;;;;;;4.38;1.80;;;33.80;63.60;;;;;;6244922;23;20032;-61
2023/07/07 12:14:26;;;;;;;4.97;1.80;;;33.90;63.70;;;;;;6245429;23;20350;-62
2023/07/07 12:16:57;;;;;;;5.10;2.10;;;33.40;62.90;;;;;;6242725;23;20020;-61
2023/07/07 12:19:33;;;;;;;3.28;1.90;;;32.80;64.30;;;;;;6244335;23;20036;-62
2023/07/07 12:22:01;;;;;;;4.72;2.00;;;32.80;64.40;;;;;;6245099;23;20024;-63
2023/07/07 12:24:33;;;;;;;3.60;2.03;;;33.10;64.40;;;;;;6244636;23;20144;-62
2023/07/07 12:27:08;;;;;;;4.18;2.25;;;33.40;64.70;;;;;;6244162;23;20020;-62
2023/07/07 12:29:40;;;;;;;4.65;1.90;;;33.50;64.90;;;;;;6244732;23;20028;-62
2023/07/07 12:32:09;;;;;;;4.03;2.22;;;33.90;64.00;;;;;;6244930;23;20020;-62
2023/07/07 12:34:40;;;;;;;3.50;2.03;;;33.90;63.40;;;;;;6242181;23;20411;-62
2023/07/07 12:37:15;;;;;;;4.22;1.92;;;34.10;63.50;;;;;;6243354;23;20024;-62
2023/07/07 12:40:00;;;;;;;3.42;1.73;;;33.80;63.30;;;;;;6244658;23;20035;-61
2023/07/07 12:42:29;;;;;;;4.10;1.98;;;33.80;63.10;;;;;;6244376;23;20020;-62
2023/07/07 12:44:58;;;;;;;4.15;1.83;;;34.30;63.10;;;;;;6244986;23;20351;-62
2023/07/07 12:47:30;;;;;;;9.50;2.38;;;33.80;63.00;;;;;;6244278;23;20095;-61
2023/07/07 12:49:59;;;;;;;3.63;1.98;;;33.90;61.80;;;;;;6242485;23;20026;-62
2023/07/07 12:52:30;;;;;;;3.72;1.98;;;33.80;62.60;;;;;;6244835;23;20028;-62
2023/07/07 12:55:16;;;;;;;3.13;1.98;;;34.00;63.00;;;;;;6243978;23;20035;-62
2023/07/07 12:57:58;;;;;;;4.88;1.70;;;33.90;62.30;;;;;;6244279;23;20477;-62
2023/07/07 13:00:29;;;;;;;5.47;1.95;;;34.00;62.40;;;;;;6244649;23;20027;-63
2023/07/07 13:03:08;;;;;;;3.60;1.80;;;33.80;61.40;;;;;;6242156;23;20032;-62